createdAt,value
2023-04-18T00:00:55.840Z,30.70
2023-04-18T00:03:23.726Z,26.42
2023-04-18T00:05:50.943Z,26.75
2023-04-18T00:08:17.996Z,26.02
2023-04-18T00:10:45.096Z,30.00
2023-04-18T00:13:12.468Z,29.37
2023-04-18T00:15:41.714Z,27.75
2023-04-18T00:18:08.957Z,28.27
2023-04-18T00:20:38.949Z,31.92
2023-04-18T00:23:06.325Z,34.03
2023-04-18T00:25:33.640Z,30.87
2023-04-18T00:28:00.726Z,30.83
2023-04-18T00:30:28.203Z,32.42
2023-04-18T00:32:56.651Z,25.13
2023-04-18T00:35:25.187Z,32.70
2023-04-18T00:37:52.346Z,30.33
2023-04-18T00:40:19.473Z,27.02
2023-04-18T00:42:46.513Z,28.38
2023-04-18T00:45:14.518Z,29.67
2023-04-18T00:47:41.667Z,31.02
2023-04-18T00:50:11.042Z,29.63
2023-04-18T00:52:38.270Z,34.45
2023-04-18T00:55:07.832Z,24.50
2023-04-18T00:57:36.140Z,29.20
2023-04-18T01:00:10.413Z,28.40
2023-04-18T01:02:40.066Z,29.17
2023-04-18T01:05:08.733Z,28.38
2023-04-18T01:07:40.740Z,30.27
2023-04-18T01:10:09.498Z,26.90
2023-04-18T01:12:37.694Z,30.00
2023-04-18T01:15:06.165Z,29.30
2023-04-18T01:17:35.522Z,32.53
2023-04-18T01:20:06.284Z,28.33
2023-04-18T01:22:33.906Z,29.92
2023-04-18T01:25:01.029Z,28.55
2023-04-18T01:27:28.132Z,31.53
2023-04-18T01:29:55.328Z,31.05
2023-04-18T01:32:22.676Z,28.50
2023-04-18T01:34:49.961Z,26.45
2023-04-18T01:37:17.656Z,28.48
2023-04-18T01:39:45.156Z,29.83
2023-04-18T01:42:12.241Z,29.38
2023-04-18T01:44:39.311Z,30.10
2023-04-18T01:47:06.494Z,29.15
2023-04-18T01:49:33.640Z,27.80
2023-04-18T01:52:00.727Z,29.47
2023-04-18T01:54:27.838Z,31.50
2023-04-18T01:56:54.890Z,32.03
2023-04-18T01:59:22.474Z,32.25
2023-04-18T02:01:49.603Z,30.90
2023-04-18T02:04:18.044Z,27.67
2023-04-18T02:06:46.838Z,32.10
2023-04-18T02:09:13.889Z,30.05
2023-04-18T02:11:43.190Z,32.95
2023-04-18T02:14:10.484Z,28.15
2023-04-18T02:16:38.789Z,28.53
2023-04-18T02:19:06.368Z,26.58
2023-04-18T02:21:34.472Z,31.67
2023-04-18T02:24:01.605Z,26.67
2023-04-18T02:26:28.680Z,26.20
2023-04-18T02:28:58.712Z,28.40
2023-04-18T02:31:25.964Z,26.60
2023-04-18T02:33:53.188Z,27.52
2023-04-18T02:36:22.084Z,28.98
2023-04-18T02:38:49.136Z,27.73
2023-04-18T02:41:19.480Z,26.87
2023-04-18T02:43:47.297Z,30.48
2023-04-18T02:46:16.369Z,28.35
2023-04-18T02:48:46.424Z,27.40
2023-04-18T02:51:14.884Z,29.30
2023-04-18T02:53:42.886Z,30.13
2023-04-18T02:56:10.620Z,28.60
2023-04-18T02:58:56.216Z,31.85
2023-04-18T03:01:52.456Z,28.83
2023-04-18T03:04:21.932Z,29.05
2023-04-18T03:06:57.893Z,26.90
2023-04-18T03:09:26.255Z,27.38
2023-04-18T03:11:58.582Z,26.38
2023-04-18T03:14:28.091Z,28.95
2023-04-18T03:16:56.200Z,27.63
2023-04-18T03:19:28.423Z,25.13
2023-04-18T03:21:56.731Z,38.03
2023-04-18T03:24:23.876Z,33.78
2023-04-18T03:26:53.826Z,34.03
2023-04-18T03:29:24.817Z,32.60
2023-04-18T03:31:51.939Z,31.80
2023-04-18T03:34:19.411Z,30.33
2023-04-18T03:36:48.196Z,27.27
2023-04-18T03:39:15.741Z,30.58
2023-04-18T03:41:43.028Z,28.08
2023-04-18T03:44:10.713Z,29.03
2023-04-18T03:46:40.322Z,31.52
2023-04-18T03:49:09.116Z,29.60
2023-04-18T03:51:50.068Z,28.45
2023-04-18T03:54:18.782Z,27.05
2023-04-18T03:56:46.278Z,24.63
2023-04-18T03:59:15.652Z,31.90
2023-04-18T04:01:46.480Z,26.42
2023-04-18T04:04:15.439Z,32.58
2023-04-18T04:06:43.212Z,26.65
2023-04-18T04:09:10.344Z,32.53
2023-04-18T04:11:38.664Z,29.70
2023-04-18T04:14:08.410Z,27.77
2023-04-18T04:16:40.492Z,25.90
2023-04-18T04:19:08.636Z,21.70
2023-04-18T04:21:42.095Z,26.97
2023-04-18T04:24:13.819Z,25.48
2023-04-18T04:26:45.142Z,23.73
2023-04-18T04:29:16.381Z,26.27
2023-04-18T04:31:45.374Z,23.65
2023-04-18T04:34:16.763Z,23.70
2023-04-18T04:36:44.325Z,26.42
2023-04-18T04:39:14.831Z,25.65
2023-04-18T04:42:05.535Z,25.38
2023-04-18T04:44:43.796Z,22.63
2023-04-18T04:47:11.032Z,25.90
2023-04-18T04:49:39.606Z,25.65
2023-04-18T04:52:07.023Z,24.20
2023-04-18T04:54:36.420Z,26.10
2023-04-18T04:57:05.982Z,24.10
2023-04-18T04:59:33.064Z,24.70
2023-04-18T05:02:00.886Z,24.15
2023-04-18T05:04:28.211Z,25.30
2023-04-18T05:06:57.642Z,21.83
2023-04-18T05:09:24.711Z,23.63
2023-04-18T05:11:51.853Z,22.90
2023-04-18T05:14:20.733Z,21.27
2023-04-18T05:16:47.856Z,20.27
2023-04-18T05:19:18.381Z,26.80
2023-04-18T05:21:45.608Z,20.77
2023-04-18T05:24:12.951Z,21.93
2023-04-18T05:26:40.624Z,22.08
2023-04-18T05:29:07.729Z,22.70
2023-04-18T05:31:35.327Z,18.05
2023-04-18T05:34:07.339Z,20.50
2023-04-18T05:36:52.711Z,22.97
2023-04-18T05:39:28.191Z,22.75
2023-04-18T05:41:59.621Z,22.83
2023-04-18T05:44:27.680Z,17.67
2023-04-18T05:46:56.239Z,19.10
2023-04-18T05:49:25.787Z,17.50
2023-04-18T05:52:06.231Z,20.35
2023-04-18T05:54:33.598Z,21.63
2023-04-18T05:57:02.174Z,15.75
2023-04-18T05:59:31.288Z,21.02
2023-04-18T06:02:03.228Z,19.47
2023-04-18T06:04:30.902Z,14.07
2023-04-18T06:06:58.475Z,19.80
2023-04-18T06:09:26.048Z,18.52
2023-04-18T06:11:53.442Z,20.65
2023-04-18T06:14:21.019Z,16.60
2023-04-18T06:16:48.660Z,16.95
2023-04-18T06:19:15.958Z,17.55
2023-04-18T06:21:43.187Z,17.00
2023-04-18T06:24:10.624Z,15.68
2023-04-18T06:26:38.031Z,17.67
2023-04-18T06:29:05.355Z,17.55
2023-04-18T06:31:32.503Z,16.52
2023-04-18T06:33:59.779Z,13.65
2023-04-18T06:36:27.576Z,16.08
2023-04-18T06:38:55.677Z,16.57
2023-04-18T06:41:25.851Z,15.38
2023-04-18T06:44:03.775Z,17.52
2023-04-18T06:46:34.027Z,19.35
2023-04-18T06:49:04.196Z,15.95
2023-04-18T06:51:31.742Z,16.73
2023-04-18T06:54:01.748Z,12.82
2023-04-18T06:56:29.683Z,16.08
2023-04-18T06:58:56.906Z,16.13
2023-04-18T07:01:24.102Z,16.92
2023-04-18T07:03:51.289Z,15.43
2023-04-18T07:06:18.819Z,16.48
2023-04-18T07:08:46.056Z,18.70
2023-04-18T07:11:18.578Z,17.52
2023-04-18T07:13:47.374Z,15.63
2023-04-18T07:16:14.607Z,16.27
2023-04-18T07:18:41.749Z,16.52
2023-04-18T07:21:08.827Z,16.02
2023-04-18T07:23:36.626Z,17.65
2023-04-18T07:26:05.780Z,18.23
2023-04-18T07:28:33.658Z,18.57
2023-04-18T07:31:03.108Z,16.20
2023-04-18T07:33:35.066Z,18.92
2023-04-18T07:36:05.611Z,18.35
2023-04-18T07:38:35.313Z,17.25
2023-04-18T07:41:03.697Z,14.70
2023-04-18T07:43:31.518Z,14.35
2023-04-18T07:45:58.826Z,13.77
2023-04-18T07:48:25.941Z,17.40
2023-04-18T07:50:54.206Z,16.67
2023-04-18T07:53:21.277Z,14.63
2023-04-18T07:55:48.559Z,16.98
2023-04-18T07:58:15.857Z,14.80
2023-04-18T08:00:44.780Z,15.93
2023-04-18T08:03:13.492Z,17.05
2023-04-18T08:05:42.906Z,17.73
2023-04-18T08:08:12.119Z,17.00
2023-04-18T08:10:41.500Z,18.10
2023-04-18T08:13:08.622Z,17.73
2023-04-18T08:15:35.835Z,18.27
2023-04-18T08:18:03.120Z,19.60
2023-04-18T08:20:30.452Z,21.60
2023-04-18T08:23:07.611Z,21.08
2023-04-18T08:25:36.449Z,18.13
2023-04-18T08:28:04.112Z,16.60
2023-04-18T08:30:31.784Z,17.07
2023-04-18T08:33:00.912Z,18.60
2023-04-18T08:35:28.350Z,17.77
2023-04-18T08:37:55.575Z,17.85
2023-04-18T08:40:23.082Z,18.83
2023-04-18T08:42:53.280Z,21.80
2023-04-18T08:45:22.904Z,17.92
2023-04-18T08:47:57.228Z,17.27
2023-04-18T08:50:24.554Z,19.85
2023-04-18T08:52:58.462Z,17.92
2023-04-18T08:55:28.206Z,17.43
2023-04-18T08:57:58.283Z,17.30
2023-04-18T09:00:27.662Z,18.80
2023-04-18T09:02:59.413Z,19.65
2023-04-18T09:05:35.741Z,20.83
2023-04-18T09:08:24.131Z,18.87
2023-04-18T09:10:54.006Z,18.85
2023-04-18T09:13:39.739Z,19.20
2023-04-18T09:16:07.281Z,17.42
2023-04-18T09:18:37.117Z,19.00
2023-04-18T09:21:22.512Z,17.97
2023-04-18T09:24:21.219Z,15.90
2023-04-18T09:26:51.976Z,18.10
2023-04-18T09:29:22.584Z,17.27
2023-04-18T09:32:01.531Z,18.10
2023-04-18T09:34:34.441Z,15.83
2023-04-18T09:37:11.297Z,19.45
2023-04-18T09:39:47.672Z,17.45
2023-04-18T09:42:20.138Z,16.20
2023-04-18T09:45:07.788Z,18.60
2023-04-18T09:47:36.843Z,18.40
2023-04-18T09:50:11.986Z,17.52
2023-04-18T09:52:43.578Z,16.92
2023-04-18T09:55:14.855Z,18.98
2023-04-18T09:57:49.490Z,17.50
2023-04-18T10:00:27.414Z,17.63
2023-04-18T10:03:05.827Z,17.55
2023-04-18T10:05:40.753Z,19.25
2023-04-18T10:08:11.431Z,19.30
2023-04-18T10:10:42.555Z,19.42
2023-04-18T10:13:14.215Z,16.53
2023-04-18T10:15:54.955Z,19.30
2023-04-18T10:18:31.043Z,18.48
2023-04-18T10:21:12.209Z,17.85
2023-04-18T10:23:50.874Z,18.13
2023-04-18T10:26:19.436Z,17.57
2023-04-18T10:28:59.563Z,19.08
2023-04-18T10:31:46.942Z,18.88
2023-04-18T10:34:20.822Z,21.20
2023-04-18T10:37:05.717Z,20.30
2023-04-18T10:40:17.845Z,17.73
2023-04-18T10:42:48.425Z,16.70
2023-04-18T10:45:24.857Z,18.92
2023-04-18T10:48:25.830Z,20.77
2023-04-18T10:51:21.910Z,19.55
2023-04-18T10:54:02.898Z,20.37
2023-04-18T10:56:40.660Z,18.67
2023-04-18T10:59:25.935Z,20.95
2023-04-18T11:02:16.266Z,18.95
2023-04-18T11:04:51.453Z,18.80
2023-04-18T11:07:53.297Z,20.73
2023-04-18T11:10:30.650Z,18.67
2023-04-18T11:13:06.841Z,15.98
2023-04-18T11:15:46.014Z,15.82
2023-04-18T11:18:26.087Z,16.35
2023-04-18T11:21:30.718Z,18.50
2023-04-18T11:24:00.367Z,14.95
2023-04-18T11:26:57.077Z,16.75
2023-04-18T11:29:34.061Z,21.40
2023-04-18T11:32:16.216Z,18.13
2023-04-18T11:35:14.985Z,14.23
2023-04-18T11:38:28.793Z,15.38
2023-04-18T11:41:07.050Z,16.23
2023-04-18T11:44:01.466Z,18.35
2023-04-18T11:46:43.541Z,22.88
2023-04-18T11:49:35.445Z,17.37
2023-04-18T11:55:31.561Z,14.15
2023-04-18T11:58:28.470Z,13.88
2023-04-18T12:01:19.729Z,16.13
2023-04-18T12:04:08.492Z,12.67
2023-04-18T12:07:06.971Z,15.40
2023-04-18T12:09:43.082Z,15.20
2023-04-18T12:12:14.773Z,14.85
2023-04-18T12:15:00.980Z,14.07
2023-04-18T12:17:38.642Z,14.00
2023-04-18T12:20:38.770Z,13.80
2023-04-18T12:23:13.802Z,11.32
2023-04-18T12:25:54.521Z,12.73
2023-04-18T12:28:27.197Z,13.25
2023-04-18T12:31:40.616Z,13.13
2023-04-18T12:34:19.582Z,11.88
2023-04-18T12:37:10.102Z,14.45
2023-04-18T12:39:51.619Z,14.65
2023-04-18T12:42:44.512Z,13.45
2023-04-18T12:45:58.433Z,12.30
2023-04-18T12:48:34.344Z,11.70
2023-04-18T12:54:39.366Z,13.23
2023-04-18T12:57:24.367Z,14.43
2023-04-18T13:00:01.706Z,15.03
2023-04-18T13:02:37.512Z,11.18
2023-04-18T13:05:20.945Z,11.30
2023-04-18T13:08:29.922Z,9.95
2023-04-18T13:11:04.637Z,10.80
2023-04-18T13:13:51.493Z,11.33
2023-04-18T13:16:36.444Z,11.20
2023-04-18T13:19:18.690Z,9.95
2023-04-18T13:22:12.026Z,11.50
2023-04-18T13:25:18.405Z,10.48
2023-04-18T13:28:11.974Z,11.67
2023-04-18T13:31:48.228Z,10.98
2023-04-18T13:33:53.739Z,11.02
2023-04-18T13:36:42.221Z,10.02
2023-04-18T13:39:24.953Z,11.38
2023-04-18T13:42:17.354Z,10.97
2023-04-18T13:46:15.447Z,10.70
2023-04-18T13:49:13.248Z,11.25
2023-04-18T13:51:50.147Z,11.45
2023-04-18T13:54:51.233Z,12.27
2023-04-18T13:57:57.133Z,12.80
2023-04-18T14:01:29.486Z,12.93
2023-04-18T14:04:15.932Z,14.70
2023-04-18T14:07:06.730Z,15.20
2023-04-18T14:10:29.469Z,16.48
2023-04-18T14:16:36.201Z,18.58
2023-04-18T14:19:56.044Z,20.52
2023-04-18T14:25:56.917Z,15.93
2023-04-18T14:28:43.908Z,15.67
2023-04-18T14:31:29.718Z,19.45
2023-04-18T14:34:42.613Z,11.98
2023-04-18T14:37:45.991Z,13.77
2023-04-18T14:40:29.883Z,14.75
2023-04-18T14:43:09.732Z,15.53
2023-04-18T14:46:07.418Z,12.95
2023-04-18T14:48:52.766Z,12.45
2023-04-18T14:51:28.521Z,14.57
2023-04-18T14:54:40.100Z,14.63
2023-04-18T14:57:39.282Z,13.87
2023-04-18T15:01:13.154Z,17.13
2023-04-18T15:04:26.917Z,11.55
2023-04-18T15:07:09.703Z,14.18
2023-04-18T15:10:31.867Z,14.20
2023-04-18T15:13:14.470Z,14.90
2023-04-18T15:16:06.384Z,17.40
2023-04-18T15:18:46.010Z,16.45
2023-04-18T15:24:36.923Z,17.83
2023-04-18T15:27:14.168Z,15.20
2023-04-18T15:30:37.655Z,14.95
2023-04-18T15:33:30.500Z,13.02
2023-04-18T15:36:20.473Z,15.55
2023-04-18T15:38:59.732Z,12.45
2023-04-18T15:41:54.237Z,11.70
2023-04-18T15:44:32.235Z,13.63
2023-04-18T15:47:04.718Z,15.00
2023-04-18T15:49:41.461Z,13.07
2023-04-18T15:52:21.465Z,14.77
2023-04-18T15:55:56.372Z,13.23
2023-04-18T15:58:03.250Z,15.23
2023-04-18T16:00:35.994Z,14.13
2023-04-18T16:03:04.935Z,15.85
2023-04-18T16:05:34.454Z,14.00
2023-04-18T16:08:06.173Z,16.60
2023-04-18T16:10:41.934Z,15.20
2023-04-18T16:13:11.719Z,16.35
2023-04-18T16:15:41.677Z,14.23
2023-04-18T16:18:11.462Z,13.68
2023-04-18T16:20:38.621Z,18.10
2023-04-18T16:23:05.959Z,14.25
2023-04-18T16:25:33.733Z,16.95
2023-04-18T16:28:01.412Z,16.77
2023-04-18T16:30:29.254Z,16.10
2023-04-18T16:32:57.409Z,16.53
2023-04-18T16:35:26.321Z,18.25
2023-04-18T16:37:56.487Z,16.73
2023-04-18T16:40:28.813Z,17.15
2023-04-18T16:43:00.534Z,17.02
2023-04-18T16:45:29.708Z,17.30
2023-04-18T16:48:01.851Z,15.70
2023-04-18T16:50:29.308Z,16.55
2023-04-18T16:52:56.499Z,19.50
2023-04-18T16:55:23.852Z,15.82
2023-04-18T16:57:51.182Z,14.93
2023-04-18T17:00:19.029Z,15.70
2023-04-18T17:02:47.095Z,15.98
2023-04-18T17:05:14.479Z,15.18
2023-04-18T17:07:41.515Z,15.45
2023-04-18T17:10:10.144Z,16.70
2023-04-18T17:12:37.616Z,16.10
2023-04-18T17:15:05.364Z,14.88
2023-04-18T17:17:32.653Z,15.10
2023-04-18T17:19:59.716Z,16.10
2023-04-18T17:22:27.004Z,17.20
2023-04-18T17:24:54.113Z,17.50
2023-04-18T17:27:21.161Z,16.77
2023-04-18T17:29:48.252Z,18.45
2023-04-18T17:32:15.592Z,16.58
2023-04-18T17:34:42.617Z,18.50
2023-04-18T17:37:11.063Z,18.20
2023-04-18T17:39:38.983Z,18.27
2023-04-18T17:42:06.118Z,21.40
2023-04-18T17:44:33.269Z,19.52
2023-04-18T17:47:01.953Z,19.50
2023-04-18T17:49:34.517Z,19.65
2023-04-18T17:52:02.534Z,20.35
2023-04-18T17:54:30.028Z,20.90
2023-04-18T17:56:57.904Z,21.55
2023-04-18T17:59:25.067Z,20.33
2023-04-18T18:01:52.208Z,20.48
2023-04-18T18:04:20.278Z,21.58
2023-04-18T18:06:57.975Z,21.23
2023-04-18T18:09:25.199Z,18.90
2023-04-18T18:11:54.682Z,22.03
2023-04-18T18:14:23.325Z,19.52
2023-04-18T18:16:50.600Z,19.90
2023-04-18T18:19:17.735Z,16.65
2023-04-18T18:21:44.840Z,21.25
2023-04-18T18:24:11.934Z,20.60
2023-04-18T18:26:39.008Z,23.27
2023-04-18T18:29:09.412Z,23.05
2023-04-18T18:31:37.118Z,22.33
2023-04-18T18:34:05.051Z,25.05
2023-04-18T18:36:32.211Z,22.23
2023-04-18T18:38:59.249Z,23.30
2023-04-18T18:41:26.313Z,20.27
2023-04-18T18:43:53.453Z,20.75
2023-04-18T18:46:20.676Z,20.15
2023-04-18T18:48:49.133Z,22.97
2023-04-18T18:51:19.412Z,23.15
2023-04-18T18:53:46.972Z,23.05
2023-04-18T18:56:14.632Z,25.75
2023-04-18T18:58:43.728Z,22.52
2023-04-18T19:01:13.865Z,22.90
2023-04-18T19:03:41.255Z,24.45
2023-04-18T19:06:08.540Z,24.58
2023-04-18T19:08:35.836Z,25.85
2023-04-18T19:11:02.910Z,23.60
2023-04-18T19:13:30.044Z,24.93
2023-04-18T19:15:57.333Z,27.08
2023-04-18T19:18:24.512Z,26.35
2023-04-18T19:20:51.561Z,23.80
2023-04-18T19:23:19.376Z,26.25
2023-04-18T19:25:46.995Z,26.43
2023-04-18T19:28:14.453Z,27.33
2023-04-18T19:30:42.658Z,25.98
2023-04-18T19:33:10.158Z,24.10
2023-04-18T19:35:38.029Z,24.90
2023-04-18T19:38:05.297Z,28.63
2023-04-18T19:40:32.402Z,23.90
2023-04-18T19:42:59.474Z,28.67
2023-04-18T19:45:26.771Z,25.10
2023-04-18T19:47:53.903Z,26.38
2023-04-18T19:50:21.110Z,24.40
2023-04-18T19:52:48.181Z,24.30
2023-04-18T19:55:15.396Z,24.77
2023-04-18T19:57:43.657Z,27.58
2023-04-18T20:00:13.332Z,32.50
2023-04-18T20:02:42.488Z,25.93
2023-04-18T20:05:10.304Z,26.83
2023-04-18T20:07:37.591Z,27.73
2023-04-18T20:10:05.447Z,24.92
2023-04-18T20:12:32.565Z,25.92
2023-04-18T20:14:59.802Z,25.00
2023-04-18T20:17:27.738Z,27.50
2023-04-18T20:19:57.020Z,29.80
2023-04-18T20:22:27.192Z,26.75
2023-04-18T20:24:57.127Z,26.25
2023-04-18T20:27:24.430Z,22.13
2023-04-18T20:29:51.711Z,26.25
2023-04-18T20:32:18.917Z,27.65
2023-04-18T20:34:46.703Z,22.60
2023-04-18T20:37:15.939Z,24.08
2023-04-18T20:39:43.000Z,27.00
2023-04-18T20:42:14.280Z,24.05
2023-04-18T20:44:46.888Z,26.25
2023-04-18T20:47:15.779Z,25.30
2023-04-18T20:49:43.339Z,24.83
2023-04-18T20:52:10.696Z,26.27
2023-04-18T20:54:37.944Z,23.63
2023-04-18T20:57:04.992Z,24.85
2023-04-18T20:59:32.122Z,27.08
2023-04-18T21:01:59.300Z,25.80
2023-04-18T21:04:27.244Z,22.90
2023-04-18T21:06:54.592Z,25.27
2023-04-18T21:09:21.760Z,25.58
2023-04-18T21:11:48.842Z,22.58
2023-04-18T21:14:17.167Z,23.48
2023-04-18T21:16:44.867Z,23.97
2023-04-18T21:19:12.174Z,24.30
2023-04-18T21:21:39.258Z,24.42
2023-04-18T21:24:06.836Z,29.13
2023-04-18T21:26:33.966Z,27.08
2023-04-18T21:29:04.789Z,25.03
2023-04-18T21:31:34.669Z,21.70
2023-04-18T21:34:04.652Z,25.80
2023-04-18T21:36:32.730Z,25.48
2023-04-18T21:39:01.348Z,24.50
2023-04-18T21:41:28.656Z,25.10
2023-04-18T21:43:55.751Z,27.52
2023-04-18T21:46:22.953Z,22.40
2023-04-18T21:48:50.322Z,25.27
2023-04-18T21:51:17.965Z,27.42
2023-04-18T21:53:45.064Z,29.40
2023-04-18T21:56:12.303Z,26.17
2023-04-18T21:58:39.626Z,31.00
2023-04-18T22:01:06.866Z,25.30
2023-04-18T22:03:34.620Z,30.00
2023-04-18T22:06:02.099Z,28.37
2023-04-18T22:08:29.554Z,26.23
2023-04-18T22:10:59.030Z,27.40
2023-04-18T22:13:30.133Z,26.65
2023-04-18T22:15:58.242Z,24.70
2023-04-18T22:18:25.715Z,28.00
2023-04-18T22:20:53.946Z,24.60
2023-04-18T22:23:21.045Z,25.60
2023-04-18T22:25:48.575Z,25.00
2023-04-18T22:28:15.976Z,26.70
2023-04-18T22:30:43.126Z,27.47
2023-04-18T22:33:10.236Z,26.92
2023-04-18T22:35:37.417Z,27.65
2023-04-18T22:38:04.594Z,30.17
2023-04-18T22:40:31.844Z,28.30
2023-04-18T22:42:58.891Z,29.03
2023-04-18T22:45:25.955Z,28.00
2023-04-18T22:47:53.373Z,26.02
2023-04-18T22:50:20.844Z,23.67
2023-04-18T22:52:48.143Z,28.70
2023-04-18T22:55:16.668Z,26.27
2023-04-18T22:57:43.904Z,24.85
2023-04-18T23:00:12.105Z,25.23
2023-04-18T23:02:39.273Z,24.85
2023-04-18T23:05:07.994Z,28.73
2023-04-18T23:07:35.253Z,28.80
2023-04-18T23:10:06.421Z,25.90
2023-04-18T23:12:33.754Z,26.88
2023-04-18T23:15:00.942Z,23.63
2023-04-18T23:17:28.015Z,23.90
2023-04-18T23:19:55.075Z,26.10
2023-04-18T23:22:24.131Z,25.20
2023-04-18T23:24:51.413Z,25.52
2023-04-18T23:27:19.453Z,27.13
2023-04-18T23:29:49.894Z,29.48
2023-04-18T23:32:16.999Z,26.83
2023-04-18T23:34:46.094Z,26.38
2023-04-18T23:37:13.172Z,24.58
2023-04-18T23:39:40.206Z,25.00
2023-04-18T23:42:07.439Z,27.15
2023-04-18T23:44:34.510Z,23.93
2023-04-18T23:47:01.624Z,27.58
2023-04-18T23:49:28.700Z,28.38
2023-04-18T23:51:55.807Z,27.48
2023-04-18T23:54:23.002Z,25.83
2023-04-18T23:56:50.039Z,25.30
2023-04-18T23:59:17.125Z,26.83
